Time;durP1;ratioP1;P1;durP2;ratioP2;P2;SDS_P1;SDS_P2;PMS_P1;PMS_P2;Temp;Humidity;BMP_temperature;BMP_pressure;BME280_temperature;BME280_humidity;BME280_pressure;Samples;Min_cycle;Max_cycle;Signal;HPM_P1;HPM_P2
2022/05/17 00:01:35;;;;;;;9.03;5.53;;;15.60;99.90;;;;;;5086848;28;20775;-71
2022/05/17 00:04:20;;;;;;;7.03;5.60;;;15.70;99.90;;;;;;5087341;28;20465;-71
2022/05/17 00:07:08;;;;;;;12.50;5.77;;;15.60;99.90;;;;;;5087390;28;20809;-71
2022/05/17 00:09:54;;;;;;;9.20;5.70;;;15.60;99.90;;;;;;5084747;28;20420;-71
2022/05/17 00:12:39;;;;;;;6.70;6.00;;;15.50;99.90;;;;;;5090515;28;20462;-71
2022/05/17 00:15:25;;;;;;;7.10;6.23;;;15.40;99.90;;;;;;5087345;28;20431;-71
2022/05/17 00:18:11;;;;;;;8.50;6.43;;;15.30;99.90;;;;;;5084788;28;20421;-71
2022/05/17 00:20:57;;;;;;;9.30;5.60;;;15.40;99.90;;;;;;5087831;28;20449;-71
2022/05/17 00:23:45;;;;;;;7.40;5.77;;;15.40;99.90;;;;;;5085748;28;20555;-71
2022/05/17 00:26:33;;;;;;;6.33;5.37;;;15.50;99.90;;;;;;5089687;28;20457;-71
2022/05/17 00:29:19;;;;;;;6.40;5.70;;;15.40;99.90;;;;;;5085694;28;20592;-71
2022/05/17 00:32:05;;;;;;;8.33;5.50;;;15.30;99.90;;;;;;5082912;28;20424;-71
2022/05/17 00:34:51;;;;;;;7.40;6.20;;;15.30;99.90;;;;;;5085319;28;20620;-71
2022/05/17 00:37:36;;;;;;;8.50;6.40;;;15.20;99.90;;;;;;5087293;28;20454;-71
2022/05/17 00:40:23;;;;;;;6.97;5.60;;;15.00;99.90;;;;;;5085568;28;20454;-71
2022/05/17 00:43:10;;;;;;;9.43;5.67;;;15.00;99.90;;;;;;5086323;28;20473;-71
2022/05/17 00:45:59;;;;;;;8.30;7.03;;;15.00;99.90;;;;;;5083661;28;20416;-71
2022/05/17 00:48:45;;;;;;;9.13;5.70;;;15.00;99.90;;;;;;5081118;28;20441;-71
2022/05/17 00:51:31;;;;;;;7.77;6.33;;;14.90;99.90;;;;;;5090846;28;20471;-71
2022/05/17 00:54:18;;;;;;;10.20;6.83;;;14.90;99.90;;;;;;5089674;28;20549;-71
2022/05/17 00:57:10;;;;;;;8.23;6.23;;;14.80;99.90;;;;;;5086576;28;20445;-71
2022/05/17 01:00:00;;;;;;;7.83;6.37;;;14.70;99.90;;;;;;5081793;28;22075;-71
2022/05/17 01:02:50;;;;;;;7.10;5.60;;;14.70;99.90;;;;;;5083229;28;20925;-71
2022/05/17 01:05:41;;;;;;;10.70;5.47;;;14.60;99.90;;;;;;5093467;28;21028;-71
2022/05/17 01:08:28;;;;;;;6.10;5.50;;;14.80;99.90;;;;;;5087351;28;20424;-71
2022/05/17 01:11:14;;;;;;;7.33;5.67;;;14.80;99.90;;;;;;5090828;28;20424;-71
2022/05/17 01:17:05;;;;;;;13.43;6.20;;;14.70;99.90;;;;;;5084310;28;20930;-71
2022/05/17 01:19:51;;;;;;;6.27;5.60;;;14.60;99.90;;;;;;5087979;28;20534;-72
2022/05/17 01:22:39;;;;;;;10.63;5.90;;;14.60;99.90;;;;;;5091027;28;20438;-71
2022/05/17 01:25:24;;;;;;;7.20;6.07;;;14.60;99.90;;;;;;5089900;28;20528;-71
2022/05/17 01:28:14;;;;;;;10.43;5.63;;;14.70;99.90;;;;;;5084287;28;20443;-71
2022/05/17 01:31:03;;;;;;;5.80;5.03;;;14.80;99.90;;;;;;5081001;28;20446;-71
2022/05/17 01:33:49;;;;;;;9.53;6.13;;;14.90;99.90;;;;;;5087050;28;20495;-70
2022/05/17 01:36:35;;;;;;;13.40;5.83;;;14.80;99.90;;;;;;5087364;28;20524;-70
2022/05/17 01:39:22;;;;;;;6.87;6.03;;;14.80;99.90;;;;;;5089612;28;20526;-70
2022/05/17 01:42:10;;;;;;;6.40;5.43;;;14.80;99.90;;;;;;5088552;28;20965;-70
2022/05/17 01:44:56;;;;;;;8.03;6.00;;;14.90;99.90;;;;;;5087129;28;20466;-70
2022/05/17 01:47:42;;;;;;;10.77;5.93;;;14.90;99.90;;;;;;5079329;28;20446;-70
2022/05/17 01:50:27;;;;;;;6.77;5.33;;;14.90;99.90;;;;;;5090769;28;20482;-70
2022/05/17 01:53:13;;;;;;;8.50;4.70;;;14.80;99.90;;;;;;5089629;28;20443;-70
2022/05/17 01:56:01;;;;;;;5.90;5.27;;;14.70;99.90;;;;;;5085451;28;21045;-70
2022/05/17 01:58:47;;;;;;;9.07;5.80;;;14.50;99.90;;;;;;5091027;28;20810;-70
2022/05/17 02:01:32;;;;;;;8.10;6.33;;;14.40;99.90;;;;;;5088844;28;20441;-70
2022/05/17 02:04:18;;;;;;;8.70;6.10;;;14.30;99.90;;;;;;5090503;22;20491;-79
2022/05/17 02:07:04;;;;;;;8.63;6.00;;;14.30;99.90;;;;;;5066591;28;20430;-76
2022/05/17 02:09:50;;;;;;;10.40;4.90;;;14.40;99.90;;;;;;5063957;28;20473;-78
2022/05/17 02:12:37;;;;;;;6.03;5.20;;;14.50;99.90;;;;;;5071119;28;20550;-78
2022/05/17 02:15:23;;;;;;;7.50;5.47;;;14.40;99.90;;;;;;5061167;28;20565;-78
2022/05/17 02:18:09;;;;;;;10.60;6.07;;;14.50;99.90;;;;;;5053171;28;20450;-79
2022/05/17 02:20:54;;;;;;;8.47;5.63;;;14.30;99.90;;;;;;5059964;28;21046;-78
2022/05/17 02:23:41;;;;;;;7.10;5.80;;;14.30;99.90;;;;;;5058996;28;20440;-79
2022/05/17 02:26:27;;;;;;;8.00;6.17;;;14.20;99.90;;;;;;5057110;28;20418;-79
2022/05/17 02:29:14;;;;;;;7.37;5.97;;;14.20;99.90;;;;;;5059598;28;20490;-79
2022/05/17 02:31:59;;;;;;;12.10;5.03;;;14.20;99.90;;;;;;5056437;28;20431;-79
2022/05/17 02:34:45;;;;;;;8.83;6.10;;;14.30;99.90;;;;;;5062043;28;20565;-79
2022/05/17 02:37:30;;;;;;;6.70;5.77;;;14.30;99.90;;;;;;5050724;28;20535;-77
2022/05/17 02:40:16;;;;;;;8.00;5.40;;;14.20;99.90;;;;;;5062538;28;20442;-77
2022/05/17 02:43:03;;;;;;;9.80;5.57;;;14.30;99.90;;;;;;5061495;28;20421;-77
2022/05/17 02:45:50;;;;;;;6.70;6.00;;;14.30;99.90;;;;;;5049173;28;20535;-76
2022/05/17 02:48:35;;;;;;;5.20;4.70;;;14.20;99.90;;;;;;5061353;28;20699;-78
2022/05/17 02:51:21;;;;;;;7.57;5.40;;;14.20;99.90;;;;;;5060208;28;21544;-78
2022/05/17 02:54:10;;;;;;;7.40;5.13;;;14.10;99.90;;;;;;5054427;28;20504;-77
2022/05/17 02:56:56;;;;;;;9.30;6.77;;;14.20;99.90;;;;;;5052253;28;20493;-79
2022/05/17 02:59:42;;;;;;;8.23;6.13;;;14.10;99.90;;;;;;5057869;28;20572;-77
2022/05/17 03:02:29;;;;;;;7.60;5.80;;;14.10;99.90;;;;;;5063496;28;20446;-77
2022/05/17 03:05:15;;;;;;;6.37;5.77;;;13.90;99.90;;;;;;5055371;28;20484;-77
2022/05/17 03:08:00;;;;;;;9.27;6.37;;;13.90;99.90;;;;;;5052855;28;20426;-78
2022/05/17 03:10:46;;;;;;;8.80;6.70;;;14.00;99.90;;;;;;5062293;28;20954;-78
2022/05/17 03:13:32;;;;;;;7.33;5.53;;;13.90;99.90;;;;;;5060687;28;20421;-77
2022/05/17 03:16:18;;;;;;;6.83;5.40;;;14.00;99.90;;;;;;5051324;28;20865;-78
2022/05/17 03:19:07;;;;;;;9.30;7.30;;;14.00;99.90;;;;;;5060246;28;20412;-79
2022/05/17 03:21:52;;;;;;;15.00;7.07;;;14.10;99.90;;;;;;5048126;28;20443;-78
2022/05/17 03:24:39;;;;;;;11.80;7.13;;;14.10;99.90;;;;;;5052993;28;20509;-79
2022/05/17 03:27:25;;;;;;;7.00;5.93;;;14.10;99.90;;;;;;5058600;28;20471;-78
2022/05/17 03:30:12;;;;;;;8.63;5.93;;;14.20;99.90;;;;;;5064494;28;20425;-78
2022/05/17 03:32:58;;;;;;;10.93;6.07;;;14.20;99.90;;;;;;5059044;28;20963;-78
2022/05/17 03:35:45;;;;;;;9.40;6.70;;;14.20;99.90;;;;;;5044443;28;20565;-78
2022/05/17 03:38:31;;;;;;;10.00;8.13;;;14.20;99.90;;;;;;5057765;28;20816;-77
2022/05/17 03:41:16;;;;;;;12.57;7.40;;;14.20;99.90;;;;;;5058388;28;20453;-77
2022/05/17 03:44:02;;;;;;;8.87;7.50;;;14.30;99.90;;;;;;5061386;28;20944;-78
2022/05/17 03:46:48;;;;;;;11.47;7.50;;;14.10;99.90;;;;;;5055677;28;20430;-77
2022/05/17 03:49:34;;;;;;;19.43;8.40;;;14.00;99.90;;;;;;5055903;28;20458;-77
2022/05/17 03:52:25;;;;;;;11.07;8.30;;;14.00;99.90;;;;;;5059503;28;20429;-79
2022/05/17 03:55:12;;;;;;;13.10;8.70;;;14.00;99.90;;;;;;5054663;28;21023;-78
2022/05/17 03:57:58;;;;;;;18.40;8.47;;;13.90;99.90;;;;;;5050841;28;21002;-78
2022/05/17 04:00:44;;;;;;;17.63;8.50;;;13.90;99.90;;;;;;5057183;28;20529;-78
2022/05/17 04:03:30;;;;;;;12.67;9.87;;;13.80;99.90;;;;;;5061453;28;20478;-77
2022/05/17 04:06:16;;;;;;;17.50;10.20;;;13.90;99.90;;;;;;5043356;28;20451;-77
2022/05/17 04:09:04;;;;;;;11.43;8.70;;;13.90;99.90;;;;;;5056141;28;20418;-78
2022/05/17 04:11:49;;;;;;;11.50;9.03;;;14.00;99.90;;;;;;5052565;28;20413;-77
2022/05/17 04:14:35;;;;;;;18.63;9.80;;;14.10;99.90;;;;;;5050319;28;20478;-79
2022/05/17 04:17:20;;;;;;;17.53;9.77;;;14.10;99.90;;;;;;5061547;28;20537;-78
2022/05/17 04:20:08;;;;;;;132.73;11.63;;;14.30;99.90;;;;;;5063720;28;20446;-78
2022/05/17 04:22:54;;;;;;;45.97;9.80;;;14.30;99.90;;;;;;5052457;28;21002;-78
2022/05/17 04:25:42;;;;;;;12.37;8.97;;;14.40;99.90;;;;;;5038387;28;20468;-78
2022/05/17 04:28:28;;;;;;;61.80;9.23;;;14.50;99.90;;;;;;5060421;28;20414;-77
2022/05/17 04:31:13;;;;;;;31.47;9.80;;;14.30;99.90;;;;;;5057728;28;20439;-78
2022/05/17 04:33:59;;;;;;;52.07;9.00;;;14.30;99.90;;;;;;5051395;28;21023;-78
2022/05/17 04:36:46;;;;;;;9.43;8.43;;;14.20;99.90;;;;;;5056103;28;20971;-78
2022/05/17 04:39:32;;;;;;;11.03;8.60;;;14.20;99.90;;;;;;5063877;28;20498;-77
2022/05/17 04:42:19;;;;;;;8.90;8.00;;;14.20;99.90;;;;;;5067861;28;20927;-78
2022/05/17 04:45:07;;;;;;;36.83;7.60;;;14.30;99.90;;;;;;5053190;28;21110;-79
2022/05/17 04:47:53;;;;;;;8.83;7.90;;;14.30;99.90;;;;;;5061790;28;20459;-76
2022/05/17 04:50:39;;;;;;;14.73;7.83;;;14.40;99.90;;;;;;5061525;28;20488;-78
2022/05/17 04:53:25;;;;;;;8.17;7.30;;;14.40;99.90;;;;;;5059804;28;20513;-77
2022/05/17 04:56:12;;;;;;;13.90;6.70;;;14.50;99.90;;;;;;5061836;28;20470;-78
2022/05/17 04:58:59;;;;;;;7.37;6.63;;;14.50;99.90;;;;;;5057898;28;20435;-78
2022/05/17 05:01:45;;;;;;;15.10;7.23;;;14.60;99.90;;;;;;5062223;28;20450;-78
2022/05/17 05:04:31;;;;;;;7.37;6.67;;;14.70;99.90;;;;;;5056479;28;20535;-77
2022/05/17 05:07:17;;;;;;;9.10;7.47;;;14.70;99.90;;;;;;5065365;28;20520;-77
2022/05/17 05:10:03;;;;;;;7.83;7.03;;;14.80;99.90;;;;;;5067865;28;20455;-77
2022/05/17 05:12:49;;;;;;;7.60;6.80;;;14.90;99.90;;;;;;5052370;28;20429;-79
2022/05/17 05:15:38;;;;;;;9.03;6.60;;;14.90;99.90;;;;;;5053857;28;20560;-79
2022/05/17 05:18:24;;;;;;;10.27;7.13;;;15.00;99.90;;;;;;5064554;28;20470;-79
2022/05/17 05:21:12;;;;;;;7.67;6.87;;;15.00;99.90;;;;;;5064509;28;20533;-79
2022/05/17 05:24:00;;;;;;;7.27;6.50;;;15.00;99.90;;;;;;5048245;28;20480;-79
2022/05/17 05:26:46;;;;;;;8.60;7.70;;;15.10;99.90;;;;;;5054123;28;20428;-78
2022/05/17 05:29:31;;;;;;;7.87;6.50;;;15.20;99.90;;;;;;5065863;28;20540;-78
2022/05/17 05:32:18;;;;;;;6.70;6.00;;;15.20;99.90;;;;;;5054608;28;20451;-77
2022/05/17 05:35:05;;;;;;;14.30;5.80;;;15.30;99.90;;;;;;5051771;28;20539;-79
2022/05/17 05:37:51;;;;;;;6.90;6.20;;;15.30;99.90;;;;;;5060949;28;20414;-78
2022/05/17 05:40:36;;;;;;;7.60;5.57;;;15.30;99.90;;;;;;5065625;28;20419;-77
2022/05/17 05:43:22;;;;;;;9.67;6.17;;;15.50;99.90;;;;;;5056007;28;20448;-77
2022/05/17 05:46:08;;;;;;;11.43;6.27;;;15.60;99.90;;;;;;5056033;28;20413;-78
2022/05/17 05:48:55;;;;;;;8.03;6.87;;;15.70;99.90;;;;;;5052453;28;20470;-79
2022/05/17 05:51:42;;;;;;;12.20;8.17;;;15.70;99.90;;;;;;5055733;28;20501;-78
2022/05/17 05:54:27;;;;;;;8.97;7.00;;;15.70;99.90;;;;;;5048690;28;20475;-77
2022/05/17 05:57:13;;;;;;;8.97;6.87;;;15.70;99.90;;;;;;5063554;28;20470;-78
2022/05/17 06:00:00;;;;;;;7.57;6.87;;;15.80;99.90;;;;;;5057560;28;20444;-78
2022/05/17 06:02:45;;;;;;;8.30;7.47;;;15.80;99.90;;;;;;5053274;28;20465;-78
2022/05/17 06:05:34;;;;;;;12.17;8.27;;;15.90;99.90;;;;;;5061711;28;20445;-78
2022/05/17 06:08:20;;;;;;;9.00;7.20;;;15.90;99.90;;;;;;5057402;28;20469;-77
2022/05/17 06:11:06;;;;;;;10.70;7.90;;;15.90;99.90;;;;;;5062836;28;20511;-79
2022/05/17 06:13:52;;;;;;;8.63;7.73;;;16.00;99.90;;;;;;5050272;28;20468;-78
2022/05/17 06:16:37;;;;;;;8.70;7.90;;;16.10;99.90;;;;;;5061554;28;20476;-78
2022/05/17 06:19:23;;;;;;;12.30;8.10;;;16.30;99.90;;;;;;5064240;28;20734;-78
2022/05/17 06:22:10;;;;;;;12.63;9.03;;;16.50;99.90;;;;;;5061158;28;20426;-77
2022/05/17 06:24:56;;;;;;;8.77;7.07;;;16.60;99.90;;;;;;5059541;28;20462;-78
2022/05/17 06:27:42;;;;;;;9.57;7.80;;;16.70;99.90;;;;;;5049155;28;20809;-77
2022/05/17 06:30:27;;;;;;;8.00;6.67;;;16.80;99.90;;;;;;5066823;28;20475;-79
2022/05/17 06:33:15;;;;;;;12.77;7.40;;;16.90;99.90;;;;;;5052838;28;20451;-79
2022/05/17 06:36:01;;;;;;;12.87;8.60;;;17.00;99.90;;;;;;5056250;28;20460;-78
2022/05/17 06:38:47;;;;;;;10.30;8.50;;;17.10;99.90;;;;;;5054771;28;20503;-77
2022/05/17 06:41:33;;;;;;;9.60;7.60;;;17.20;99.90;;;;;;5064075;28;20537;-78
2022/05/17 06:44:19;;;;;;;10.90;9.40;;;17.40;99.90;;;;;;5054230;28;20538;-79
2022/05/17 06:47:05;;;;;;;10.10;8.67;;;17.60;99.90;;;;;;5062785;28;20443;-79
2022/05/17 06:49:51;;;;;;;19.47;11.00;;;17.70;99.90;;;;;;5043205;28;20489;-79
2022/05/17 06:52:38;;;;;;;13.43;8.63;;;17.80;99.90;;;;;;5051642;28;20981;-78
2022/05/17 06:55:25;;;;;;;12.20;8.23;;;18.00;99.90;;;;;;5052711;28;20524;-79
2022/05/17 06:58:11;;;;;;;16.67;9.10;;;18.20;99.90;;;;;;5050362;28;20903;-79
2022/05/17 07:00:57;;;;;;;10.23;7.97;;;18.30;99.90;;;;;;5051119;28;20443;-79
2022/05/17 07:03:43;;;;;;;13.30;9.90;;;18.40;99.90;;;;;;5036144;28;20558;-77
2022/05/17 07:06:29;;;;;;;12.53;7.80;;;18.50;99.90;;;;;;5039517;28;20439;-78
2022/05/17 07:09:15;;;;;;;10.60;7.93;;;18.60;99.90;;;;;;5056126;28;20460;-79
2022/05/17 07:15:07;;;;;;;10.40;8.93;;;18.90;99.90;;;;;;5067030;28;20438;-78
2022/05/17 07:17:53;;;;;;;11.43;9.40;;;19.10;99.90;;;;;;5065744;28;20461;-77
2022/05/17 07:20:38;;;;;;;12.83;9.87;;;19.10;99.90;;;;;;5061707;28;20462;-79
2022/05/17 07:23:25;;;;;;;16.47;10.33;;;19.20;99.90;;;;;;5048672;28;20501;-79
2022/05/17 07:26:12;;;;;;;20.43;9.53;;;19.30;99.90;;;;;;5059932;28;20984;-80
2022/05/17 07:28:59;;;;;;;15.93;10.90;;;19.40;99.90;;;;;;5058886;28;20539;-79
2022/05/17 07:31:46;;;;;;;18.40;9.93;;;19.50;99.90;;;;;;5053830;28;20988;-79
2022/05/17 07:34:33;;;;;;;12.73;10.00;;;19.50;99.90;;;;;;5061002;28;20463;-79
2022/05/17 07:37:18;;;;;;;12.37;10.80;;;19.70;99.90;;;;;;5061082;28;20467;-78
2022/05/17 07:40:06;;;;;;;13.57;10.80;;;19.70;99.90;;;;;;5059474;28;20474;-79
2022/05/17 07:42:52;;;;;;;14.90;10.40;;;19.80;99.90;;;;;;5042441;28;20652;-78
2022/05/17 07:45:39;;;;;;;15.50;10.40;;;20.00;99.90;;;;;;5065588;28;20539;-79
2022/05/17 07:48:26;;;;;;;14.80;10.10;;;20.20;99.90;;;;;;5061918;28;20439;-79
2022/05/17 07:51:12;;;;;;;10.47;9.33;;;20.10;99.90;;;;;;5062567;28;20442;-78
2022/05/17 07:53:57;;;;;;;13.60;9.37;;;20.10;99.90;;;;;;5057926;28;20513;-78
2022/05/17 07:56:43;;;;;;;13.03;8.97;;;20.20;99.90;;;;;;5053085;28;20525;-77
2022/05/17 07:59:29;;;;;;;12.63;8.63;;;20.30;99.90;;;;;;5059917;28;20448;-77
2022/05/17 08:02:16;;;;;;;13.50;8.50;;;20.40;99.90;;;;;;5048570;28;20451;-78
2022/05/17 08:05:02;;;;;;;11.43;7.60;;;20.50;99.90;;;;;;5066688;22;20491;-70
2022/05/17 08:07:49;;;;;;;10.70;8.57;;;20.50;99.90;;;;;;5044217;28;20641;-71
2022/05/17 08:10:35;;;;;;;11.40;8.47;;;20.60;99.90;;;;;;5047288;28;20447;-71
2022/05/17 08:13:23;;;;;;;12.67;7.00;;;20.70;99.90;;;;;;5043088;28;21161;-70
2022/05/17 08:16:08;;;;;;;12.87;7.23;;;20.70;99.90;;;;;;5029800;28;20514;-70
2022/05/17 08:18:55;;;;;;;10.33;7.23;;;20.70;99.90;;;;;;5025311;28;20478;-70
2022/05/17 08:21:41;;;;;;;9.50;7.90;;;20.70;99.90;;;;;;5017873;28;20498;-70
2022/05/17 08:24:27;;;;;;;15.20;6.87;;;20.70;99.90;;;;;;5025574;28;20570;-70
2022/05/17 08:30:19;;;;;;;14.50;7.60;;;20.90;99.90;;;;;;5012647;28;20418;-70
2022/05/17 08:33:19;;;;;;;12.63;7.00;;;21.00;99.90;;;;;;5033190;28;20452;-70
2022/05/17 08:36:10;;;;;;;12.97;6.67;;;21.00;99.90;;;;;;5028885;28;20558;-71
2022/05/17 08:38:55;;;;;;;12.80;6.00;;;21.10;99.90;;;;;;5021209;28;20828;-70
2022/05/17 08:41:44;;;;;;;12.10;5.67;;;21.10;99.90;;;;;;5025727;28;20992;-70
2022/05/17 08:44:43;;;;;;;9.40;5.10;;;21.30;99.90;;;;;;5027743;28;20997;-70
2022/05/17 08:47:39;;;;;;;10.67;5.03;;;21.30;99.90;;;;;;5026110;28;20445;-70
2022/05/17 08:50:27;;;;;;;10.23;5.00;;;21.40;99.90;;;;;;5026929;28;20563;-70
2022/05/17 08:53:18;;;;;;;14.47;4.20;;;21.40;99.90;;;;;;5027233;28;20448;-70
2022/05/17 08:56:04;;;;;;;10.00;4.20;;;21.40;99.90;;;;;;5026559;28;21028;-71
2022/05/17 08:58:53;;;;;;;7.07;4.90;;;21.50;99.90;;;;;;5016830;28;20444;-71
2022/05/17 09:01:45;;;;;;;10.37;5.33;;;21.60;99.90;;;;;;5026432;28;20582;-69
2022/05/17 09:04:58;;;;;;;8.73;5.37;;;21.70;99.90;;;;;;5024821;28;20476;-70
2022/05/17 09:07:50;;;;;;;8.80;4.67;;;21.80;99.90;;;;;;5030438;28;20416;-70
2022/05/17 09:10:39;;;;;;;9.37;5.40;;;21.90;99.90;;;;;;5028144;28;20801;-70
2022/05/17 09:13:30;;;;;;;9.37;5.10;;;21.90;99.90;;;;;;5019220;28;20452;-70
2022/05/17 09:16:16;;;;;;;7.80;4.97;;;22.00;99.90;;;;;;5027655;28;20440;-70
2022/05/17 09:19:02;;;;;;;6.30;4.20;;;22.00;99.90;;;;;;5024928;28;20441;-70
2022/05/17 09:21:48;;;;;;;13.63;5.50;;;22.10;99.90;;;;;;5022625;28;20447;-70
2022/05/17 09:24:39;;;;;;;6.63;5.03;;;22.00;99.90;;;;;;5031815;28;20836;-70
2022/05/17 09:27:30;;;;;;;12.70;4.53;;;22.00;99.90;;;;;;5028848;28;20440;-70
2022/05/17 09:30:34;;;;;;;8.30;4.60;;;22.10;99.90;;;;;;5028005;28;20452;-70
2022/05/17 09:33:22;;;;;;;15.63;5.10;;;21.90;98.50;;;;;;5019870;28;20460;-70
2022/05/17 09:36:14;;;;;;;15.50;4.37;;;22.00;99.70;;;;;;5027911;28;20502;-70
2022/05/17 09:39:00;;;;;;;7.90;4.07;;;22.10;99.10;;;;;;5030156;28;20456;-70
2022/05/17 09:41:46;;;;;;;9.33;4.20;;;22.00;95.90;;;;;;5024934;28;20452;-71
2022/05/17 09:44:40;;;;;;;5.83;3.37;;;22.10;96.90;;;;;;5025099;28;20991;-70
2022/05/17 09:47:29;;;;;;;12.93;3.60;;;22.30;94.90;;;;;;5029820;28;20512;-70
2022/05/17 09:53:21;;;;;;;7.90;4.30;;;22.60;92.40;;;;;;5025961;28;20519;-70
2022/05/17 09:56:08;;;;;;;8.67;4.20;;;22.20;91.60;;;;;;5029540;28;20619;-70
2022/05/17 09:58:54;;;;;;;5.00;3.60;;;22.20;91.70;;;;;;5026137;28;20464;-70
2022/05/17 10:01:41;;;;;;;9.07;3.37;;;22.20;92.40;;;;;;5026131;28;20443;-70
2022/05/17 10:04:27;;;;;;;5.33;3.20;;;22.40;91.00;;;;;;5023607;28;20483;-71
2022/05/17 10:07:18;;;;;;;12.60;3.57;;;22.60;95.90;;;;;;5027554;28;20416;-70
2022/05/17 10:10:10;;;;;;;9.93;3.83;;;22.80;91.70;;;;;;5026217;28;20453;-70
2022/05/17 10:13:03;;;;;;;8.30;3.50;;;23.00;89.70;;;;;;5026892;28;20861;-71
2022/05/17 10:15:52;;;;;;;5.83;2.90;;;23.20;86.40;;;;;;5031050;28;20539;-71
2022/05/17 10:18:45;;;;;;;12.90;3.50;;;23.40;84.00;;;;;;5020472;28;20619;-70
2022/05/17 10:21:38;;;;;;;10.40;3.80;;;23.50;82.90;;;;;;5028665;28;20523;-70
2022/05/17 10:24:31;;;;;;;9.70;3.00;;;23.50;79.50;;;;;;5025559;28;20495;-71
2022/05/17 10:27:22;;;;;;;6.83;3.20;;;23.70;84.50;;;;;;5031322;28;20444;-71
2022/05/17 10:30:11;;;;;;;7.43;3.00;;;23.80;85.60;;;;;;5027435;28;20827;-71
2022/05/17 10:33:00;;;;;;;5.93;2.87;;;23.90;76.40;;;;;;5027876;28;20449;-70
2022/05/17 10:35:51;;;;;;;7.53;3.10;;;24.00;68.20;;;;;;5027661;28;20608;-71
2022/05/17 10:38:44;;;;;;;6.10;3.13;;;23.90;68.70;;;;;;5030138;28;20484;-70
2022/05/17 10:41:30;;;;;;;8.83;2.87;;;23.90;72.00;;;;;;5029453;28;20468;-70
2022/05/17 10:44:19;;;;;;;4.57;2.63;;;23.90;75.20;;;;;;5029691;28;20514;-71
2022/05/17 10:47:15;;;;;;;6.67;3.07;;;24.10;70.00;;;;;;5022925;28;20441;-70
2022/05/17 10:50:17;;;;;;;4.97;2.77;;;24.10;67.60;;;;;;5022106;28;20828;-70
2022/05/17 10:53:19;;;;;;;7.63;2.93;;;24.20;66.50;;;;;;5024054;28;20793;-70
2022/05/17 10:56:15;;;;;;;7.17;4.13;;;24.30;71.00;;;;;;5029344;28;20505;-70
2022/05/17 10:59:10;;;;;;;4.80;2.50;;;24.10;64.70;;;;;;5023382;28;20524;-70
2022/05/17 11:02:08;;;;;;;14.73;2.63;;;24.10;65.70;;;;;;5028888;28;20444;-71
2022/05/17 11:05:09;;;;;;;9.03;3.60;;;24.20;67.60;;;;;;5023662;28;20998;-70
2022/05/17 11:08:04;;;;;;;3.87;2.17;;;24.40;67.70;;;;;;5022442;28;20923;-70
2022/05/17 11:11:00;;;;;;;6.30;2.60;;;24.50;66.00;;;;;;5029271;28;21275;-70
2022/05/17 11:13:51;;;;;;;6.10;3.00;;;24.70;64.10;;;;;;5027031;28;20803;-70
2022/05/17 11:16:41;;;;;;;6.30;2.50;;;24.80;64.10;;;;;;5025580;28;20456;-70
2022/05/17 11:19:33;;;;;;;4.97;2.33;;;24.90;59.50;;;;;;5028462;28;20468;-70
2022/05/17 11:22:27;;;;;;;5.47;2.27;;;25.00;64.20;;;;;;5026710;28;20448;-71
2022/05/17 11:25:44;;;;;;;4.63;2.47;;;25.00;56.70;;;;;;5030823;28;20449;-70
2022/05/17 11:28:50;;;;;;;5.40;2.60;;;25.10;60.90;;;;;;5010009;28;20581;-71
2022/05/17 11:31:48;;;;;;;4.50;2.30;;;25.10;56.10;;;;;;5028367;28;20475;-70
2022/05/17 11:34:40;;;;;;;6.43;2.20;;;25.10;55.10;;;;;;5025695;28;20515;-70
2022/05/17 11:37:50;;;;;;;5.50;2.63;;;25.20;58.30;;;;;;5025415;28;20464;-70
2022/05/17 11:40:57;;;;;;;4.27;2.50;;;25.40;62.20;;;;;;5025910;28;20452;-70
2022/05/17 11:43:51;;;;;;;8.70;3.00;;;25.60;55.70;;;;;;5028378;28;20495;-70
2022/05/17 11:46:56;;;;;;;6.63;2.57;;;25.70;56.10;;;;;;5029165;28;20869;-70
2022/05/17 11:49:48;;;;;;;4.40;2.60;;;25.70;50.00;;;;;;5022644;28;20448;-70
2022/05/17 11:52:33;;;;;;;3.63;2.07;;;25.90;53.20;;;;;;5032287;28;20440;-70
2022/05/17 11:55:21;;;;;;;3.97;2.30;;;25.90;54.40;;;;;;5028832;28;20473;-70
2022/05/17 11:58:10;;;;;;;4.80;1.97;;;26.10;48.20;;;;;;5021201;28;20514;-70
2022/05/17 12:00:57;;;;;;;6.87;2.37;;;26.10;49.00;;;;;;5023880;28;20448;-69
2022/05/17 12:03:54;;;;;;;4.83;2.00;;;26.20;51.40;;;;;;5030312;28;20420;-69
2022/05/17 12:07:04;;;;;;;3.70;2.10;;;26.30;47.30;;;;;;5029311;28;20424;-70
2022/05/17 12:09:53;;;;;;;5.00;1.67;;;26.50;44.60;;;;;;5017449;28;20472;-70
2022/05/17 12:12:58;;;;;;;4.23;2.00;;;26.50;45.00;;;;;;5025659;28;20479;-70
2022/05/17 12:15:52;;;;;;;5.40;2.00;;;26.40;44.80;;;;;;5028160;28;20515;-70
2022/05/17 12:18:44;;;;;;;11.83;1.87;;;26.30;44.30;;;;;;5027414;28;20461;-70
2022/05/17 12:21:41;;;;;;;6.10;1.87;;;26.10;44.60;;;;;;5028047;28;20788;-70
2022/05/17 12:24:41;;;;;;;3.63;2.10;;;25.90;42.80;;;;;;5017495;28;20818;-69
2022/05/17 12:27:30;;;;;;;5.17;2.20;;;25.70;46.80;;;;;;5021294;28;20446;-69
2022/05/17 12:33:28;;;;;;;6.70;2.33;;;25.20;51.90;;;;;;5021727;28;20820;-70
2022/05/17 12:36:18;;;;;;;5.50;2.77;;;25.00;54.90;;;;;;5028376;28;20443;-70
2022/05/17 12:45:29;;;;;;;5.77;2.30;;;24.50;61.70;;;;;;4985493;28;20512;-70
2022/05/17 12:48:20;;;;;;;7.37;2.33;;;24.40;62.20;;;;;;5018167;28;20918;-70
2022/05/17 12:51:08;;;;;;;5.43;2.57;;;24.30;63.90;;;;;;5025354;28;20444;-70
2022/05/17 12:53:58;;;;;;;4.60;2.27;;;24.20;64.30;;;;;;5025792;28;20803;-69
2022/05/17 12:56:44;;;;;;;5.67;2.73;;;24.20;69.40;;;;;;5027970;28;20430;-71
2022/05/17 12:59:32;;;;;;;8.67;2.90;;;24.10;65.60;;;;;;5025532;28;20476;-71
2022/05/17 13:02:25;;;;;;;4.13;2.40;;;24.30;70.40;;;;;;5027169;28;20464;-70
2022/05/17 13:05:25;;;;;;;6.30;2.33;;;24.60;62.40;;;;;;5034298;28;20554;-71
2022/05/17 13:08:15;;;;;;;4.57;2.37;;;25.00;61.80;;;;;;5030016;28;20526;-71
2022/05/17 13:11:05;;;;;;;4.40;1.70;;;25.50;61.70;;;;;;5033169;28;20460;-71
2022/05/17 13:13:57;;;;;;;5.03;1.83;;;25.90;50.20;;;;;;5019280;28;20428;-71
2022/05/17 13:16:45;;;;;;;4.60;2.13;;;26.20;43.70;;;;;;5032381;28;20452;-70
2022/05/17 13:19:30;;;;;;;3.30;1.70;;;26.60;49.10;;;;;;5035440;28;20614;-71
2022/05/17 13:22:20;;;;;;;3.80;1.77;;;26.80;44.60;;;;;;5033790;28;20933;-71
2022/05/17 13:25:07;;;;;;;8.53;2.07;;;27.10;46.60;;;;;;5032799;28;20453;-70
2022/05/17 13:27:56;;;;;;;4.87;1.83;;;27.30;42.40;;;;;;5026966;28;20440;-71
2022/05/17 13:30:47;;;;;;;6.43;1.70;;;27.40;42.30;;;;;;5030976;28;20425;-70
2022/05/17 13:33:35;;;;;;;3.60;1.73;;;27.50;43.70;;;;;;5032505;28;20443;-71
2022/05/17 13:36:34;;;;;;;6.20;1.50;;;27.70;38.20;;;;;;5028374;28;20456;-71
2022/05/17 13:39:28;;;;;;;2.83;1.50;;;27.90;39.60;;;;;;5023253;28;20997;-70
2022/05/17 13:42:22;;;;;;;5.70;2.33;;;28.00;35.10;;;;;;5027804;28;20587;-71
2022/05/17 13:45:29;;;;;;;5.60;2.17;;;28.00;37.30;;;;;;5030050;28;20468;-71
2022/05/17 13:48:20;;;;;;;6.47;1.80;;;28.20;37.30;;;;;;5025512;28;20456;-70
2022/05/17 13:51:07;;;;;;;4.80;1.50;;;28.50;38.10;;;;;;5024067;28;20920;-71
2022/05/17 13:53:58;;;;;;;3.23;1.70;;;28.50;33.40;;;;;;5032845;28;20432;-71
2022/05/17 13:56:57;;;;;;;4.57;1.60;;;28.00;33.00;;;;;;5031001;28;20477;-73
2022/05/17 13:59:50;;;;;;;5.90;1.63;;;27.90;32.90;;;;;;5033842;28;21018;-72
2022/05/17 14:02:42;;;;;;;4.13;1.23;;;28.00;36.90;;;;;;5038464;28;20460;-71
2022/05/17 14:05:31;;;;;;;6.33;1.30;;;28.10;34.40;;;;;;5082443;22;20554;-75
2022/05/17 14:14:31;;;;;;;4.87;1.53;;;28.40;32.40;;;;;;5085495;28;20524;-76
2022/05/17 14:17:21;;;;;;;5.13;1.50;;;28.40;32.40;;;;;;5072918;28;20831;-76
2022/05/17 14:20:09;;;;;;;3.83;1.40;;;28.30;32.00;;;;;;5069814;28;20478;-76
2022/05/17 14:22:58;;;;;;;4.37;1.47;;;28.00;30.20;;;;;;5072787;28;20569;-75
2022/05/17 14:25:44;;;;;;;3.13;1.30;;;27.50;31.40;;;;;;5063864;28;20537;-76
2022/05/17 14:28:31;;;;;;;2.77;1.23;;;27.30;33.80;;;;;;5067244;28;20510;-76
2022/05/17 14:31:18;;;;;;;2.93;1.30;;;27.20;33.70;;;;;;5070812;28;20808;-75
2022/05/17 14:34:07;;;;;;;4.67;2.00;;;27.20;34.40;;;;;;5072565;28;20561;-76
2022/05/17 14:36:55;;;;;;;5.80;1.53;;;27.40;36.00;;;;;;5069904;28;20454;-76
2022/05/17 14:39:41;;;;;;;2.70;1.20;;;27.60;34.20;;;;;;5065815;28;20482;-76
2022/05/17 14:42:27;;;;;;;5.40;1.83;;;27.90;35.30;;;;;;5074478;28;20484;-75
2022/05/17 14:45:15;;;;;;;5.93;1.80;;;28.00;34.30;;;;;;5071498;28;20442;-76
2022/05/17 14:48:01;;;;;;;6.03;1.30;;;28.10;33.10;;;;;;5063774;28;20462;-76
2022/05/17 14:50:47;;;;;;;6.43;1.60;;;28.20;32.30;;;;;;5058191;28;20457;-76
2022/05/17 14:53:34;;;;;;;2.73;1.50;;;28.10;33.10;;;;;;5074993;28;20573;-76
2022/05/17 14:56:21;;;;;;;2.97;1.40;;;28.10;34.00;;;;;;5071433;28;21006;-76
2022/05/17 14:59:08;;;;;;;6.53;1.40;;;28.10;33.90;;;;;;5058299;28;20537;-76
2022/05/17 15:01:54;;;;;;;3.30;1.17;;;28.20;35.30;;;;;;5065414;28;20426;-77